Time;durP1;ratioP1;P1;durP2;ratioP2;P2;SDS_P1;SDS_P2;PMS_P1;PMS_P2;Temp;Humidity;BMP_temperature;BMP_pressure;BME280_temperature;BME280_humidity;BME280_pressure;Samples;Min_cycle;Max_cycle;Signal;HPM_P1;HPM_P2
2022/07/30 00:01:32;;;;;;;5.82;1.92;;;;;;;20.98;57.85;100855.59;5005938;28;20405;-74
2022/07/30 00:03:58;;;;;;;7.30;1.80;;;;;;;20.94;57.87;100849.00;5011794;28;20030;-74
2022/07/30 00:06:23;;;;;;;7.45;2.30;;;;;;;20.90;58.38;100854.53;5026099;28;20076;-74
2022/07/30 00:08:49;;;;;;;7.18;2.13;;;;;;;20.89;58.33;100852.06;5033938;28;20033;-74
2022/07/30 00:11:14;;;;;;;5.63;2.03;;;;;;;20.90;58.24;100854.53;5052175;28;20513;-74
2022/07/30 00:13:40;;;;;;;3.10;1.60;;;;;;;20.89;58.05;100854.88;5039774;28;20033;-74
2022/07/30 00:16:06;;;;;;;5.90;2.10;;;;;;;20.83;58.54;100859.13;5023025;28;20116;-74
2022/07/30 00:18:32;;;;;;;6.47;2.17;;;;;;;20.80;58.98;100857.03;5009929;28;20075;-74
2022/07/30 00:20:57;;;;;;;5.57;1.77;;;;;;;20.75;59.59;100853.28;4978196;28;20038;-74
2022/07/30 00:23:23;;;;;;;7.13;2.40;;;;;;;20.72;60.96;100845.50;5023719;28;20037;-74
2022/07/30 00:25:48;;;;;;;4.25;1.65;;;;;;;20.66;59.08;100849.75;4970080;28;20467;-74
2022/07/30 00:28:13;;;;;;;5.05;1.85;;;;;;;20.65;60.24;100850.94;5008175;28;20028;-74
2022/07/30 00:30:39;;;;;;;5.93;2.25;;;;;;;20.62;58.99;100860.09;5028377;28;20038;-74
2022/07/30 00:33:05;;;;;;;6.05;2.20;;;;;;;20.60;61.22;100856.81;5034833;28;20512;-74
2022/07/30 00:35:31;;;;;;;5.07;2.10;;;;;;;20.58;61.02;100853.50;5027674;28;20101;-74
2022/07/30 00:37:57;;;;;;;6.88;2.83;;;;;;;20.58;60.34;100850.69;5015665;28;20104;-74
2022/07/30 00:40:22;;;;;;;7.80;2.95;;;;;;;20.49;60.17;100845.13;5025673;28;20030;-74
2022/07/30 00:42:48;;;;;;;6.53;2.50;;;;;;;20.47;59.64;100852.31;5032670;28;20029;-74
2022/07/30 00:45:14;;;;;;;4.57;2.38;;;;;;;20.43;60.64;100849.38;4998932;28;20030;-74
2022/07/30 00:47:40;;;;;;;6.90;2.55;;;;;;;20.38;60.40;100843.16;5026276;28;20025;-74
2022/07/30 00:50:06;;;;;;;6.20;2.40;;;;;;;20.30;60.82;100848.53;5018658;28;20053;-74
2022/07/30 00:52:32;;;;;;;9.80;3.22;;;;;;;20.30;61.54;100842.09;5025758;28;20061;-74
2022/07/30 00:54:58;;;;;;;8.68;3.00;;;;;;;20.23;63.10;100848.31;4983861;28;20018;-74
2022/07/30 00:57:25;;;;;;;7.78;3.28;;;;;;;20.21;64.26;100847.03;5036759;28;20038;-74
2022/07/30 00:59:50;;;;;;;7.47;3.20;;;;;;;20.16;62.46;100847.25;5003553;28;20080;-73
2022/07/30 01:02:16;;;;;;;6.35;3.13;;;;;;;20.15;62.90;100852.06;5025041;28;20025;-74
2022/07/30 01:04:41;;;;;;;10.85;3.97;;;;;;;20.17;64.59;100849.72;5026966;28;20061;-73
2022/07/30 01:07:07;;;;;;;10.23;4.03;;;;;;;20.07;64.12;100844.53;5017485;28;20025;-73
2022/07/30 01:09:32;;;;;;;6.22;3.20;;;;;;;19.98;63.74;100841.00;5013216;28;20084;-73
2022/07/30 01:11:57;;;;;;;7.38;3.78;;;;;;;19.98;64.58;100849.47;5020497;28;20105;-74
2022/07/30 01:14:23;;;;;;;7.32;3.45;;;;;;;19.95;64.09;100853.81;5006900;28;20033;-73
2022/07/30 01:16:48;;;;;;;10.85;3.90;;;;;;;19.84;65.56;100844.16;5031124;28;20033;-74
2022/07/30 01:22:09;;;;;;;8.07;3.83;;;;;;;19.77;65.21;100846.72;5003723;28;20504;-75
2022/07/30 01:24:40;;;;;;;8.18;3.90;;;;;;;19.72;65.50;100835.66;4999447;28;20023;-75
2022/07/30 01:27:06;;;;;;;5.50;3.60;;;;;;;19.74;65.51;100834.13;5029647;28;20036;-74
2022/07/30 01:29:31;;;;;;;10.20;4.00;;;;;;;19.72;65.51;100839.28;5031098;28;20037;-74
2022/07/30 01:31:58;;;;;;;6.13;3.33;;;;;;;19.66;65.38;100835.06;5006387;28;20084;-74
2022/07/30 01:34:28;;;;;;;9.10;3.20;;;;;;;19.62;65.92;100834.09;5019657;28;20026;-74
2022/07/30 01:36:54;;;;;;;9.00;4.22;;;;;;;19.65;66.77;100836.22;4995543;28;20104;-74
2022/07/30 01:39:20;;;;;;;10.18;3.30;;;;;;;19.59;66.04;100834.78;4996706;28;20029;-74
2022/07/30 01:41:45;;;;;;;8.15;3.55;;;;;;;19.57;65.27;100832.28;5000426;28;20439;-74
2022/07/30 01:44:11;;;;;;;8.50;3.03;;;;;;;19.53;65.12;100830.50;5008978;28;20038;-74
2022/07/30 01:46:37;;;;;;;9.50;3.70;;;;;;;19.46;65.36;100831.09;5006644;28;20049;-74
2022/07/30 01:49:02;;;;;;;9.38;3.70;;;;;;;19.47;65.48;100827.09;5025493;28;20462;-74
2022/07/30 01:51:28;;;;;;;5.25;3.40;;;;;;;19.45;66.48;100828.63;5029055;28;20034;-74
2022/07/30 01:53:54;;;;;;;8.20;3.08;;;;;;;19.42;66.02;100825.34;5008915;28;20033;-75
2022/07/30 01:56:20;;;;;;;5.72;2.90;;;;;;;19.36;65.83;100821.09;5002738;28;20026;-74
2022/07/30 01:58:46;;;;;;;8.23;3.88;;;;;;;19.34;66.94;100820.59;5005348;28;20079;-74
2022/07/30 02:01:11;;;;;;;6.85;3.08;;;;;;;19.35;66.29;100818.59;5026499;28;20029;-74
2022/07/30 02:03:36;;;;;;;8.35;3.00;;;;;;;19.25;66.70;100808.63;5032712;28;20425;-74
2022/07/30 02:06:22;;;;;;;6.43;3.20;;;;;;;19.20;65.82;100818.09;5031415;28;20391;-74
2022/07/30 02:08:57;;;;;;;5.00;2.72;;;;;;;19.14;65.62;100824.28;4995990;28;20049;-74
2022/07/30 02:14:08;;;;;;;7.93;3.72;;;;;;;19.07;66.76;100812.75;5027345;28;20041;-74
2022/07/30 02:16:35;;;;;;;6.53;3.20;;;;;;;19.00;66.70;100818.94;5008008;28;20157;-74
2022/07/30 02:19:05;;;;;;;8.32;4.13;;;;;;;18.95;67.44;100821.94;5026724;28;20113;-74
2022/07/30 02:21:33;;;;;;;6.95;3.97;;;;;;;18.92;67.88;100812.19;5019968;28;20049;-74
2022/07/30 02:23:59;;;;;;;9.85;3.72;;;;;;;18.93;68.13;100822.28;5008879;28;20041;-74
2022/07/30 02:26:24;;;;;;;5.97;3.70;;;;;;;18.91;68.34;100818.97;5026389;28;20033;-74
2022/07/30 02:28:51;;;;;;;9.32;4.30;;;;;;;18.90;67.70;100828.59;5002326;28;20033;-74
2022/07/30 02:31:21;;;;;;;11.32;3.92;;;;;;;18.88;67.67;100828.09;5021435;28;20037;-74
2022/07/30 02:33:48;;;;;;;8.02;4.03;;;;;;;18.87;68.21;100831.28;4997469;28;20034;-74
2022/07/30 02:36:13;;;;;;;10.85;4.30;;;;;;;18.81;67.90;100825.03;5012945;28;20596;-74
2022/07/30 02:38:39;;;;;;;9.18;4.50;;;;;;;18.75;67.38;100823.59;5030031;28;20029;-74
2022/07/30 02:41:04;;;;;;;9.40;4.68;;;;;;;18.72;68.17;100819.44;5019134;28;20033;-74
2022/07/30 02:43:30;;;;;;;8.38;4.45;;;;;;;18.70;68.39;100826.56;5007144;28;20041;-74
2022/07/30 02:45:55;;;;;;;6.03;3.95;;;;;;;18.66;67.99;100817.16;5011147;28;20040;-74
2022/07/30 02:48:22;;;;;;;7.25;4.28;;;;;;;18.65;68.36;100821.13;5007839;28;20121;-74
2022/07/30 02:50:48;;;;;;;10.15;4.90;;;;;;;18.65;68.97;100819.16;5024241;28;20034;-74
2022/07/30 02:53:14;;;;;;;6.80;3.95;;;;;;;18.59;68.57;100823.31;4999071;28;20045;-74
2022/07/30 02:55:39;;;;;;;9.68;4.03;;;;;;;18.60;68.57;100818.53;5010510;28;20033;-74
2022/07/30 02:58:05;;;;;;;6.63;3.80;;;;;;;18.58;68.70;100818.03;5009534;28;20393;-74
2022/07/30 03:00:31;;;;;;;6.05;3.80;;;;;;;18.57;68.49;100822.03;5017958;28;20083;-74
2022/07/30 03:02:56;;;;;;;5.95;3.95;;;;;;;18.50;68.92;100826.19;5028432;28;20552;-74
2022/07/30 03:05:22;;;;;;;11.25;4.30;;;;;;;18.46;68.16;100827.22;5020001;28;20057;-74
2022/07/30 03:07:47;;;;;;;9.13;4.53;;;;;;;18.44;68.56;100830.38;5010135;28;20026;-74
2022/07/30 03:10:13;;;;;;;8.27;4.47;;;;;;;18.42;69.18;100837.50;5017347;28;20033;-74
2022/07/30 03:12:40;;;;;;;9.95;4.78;;;;;;;18.37;68.57;100846.94;5028357;28;20034;-74
2022/07/30 03:15:06;;;;;;;10.90;5.70;;;;;;;18.29;69.79;100848.63;4994909;28;20038;-74
2022/07/30 03:17:36;;;;;;;10.43;5.85;;;;;;;18.27;69.95;100848.13;5005680;28;20102;-74
2022/07/30 03:20:03;;;;;;;10.25;5.50;;;;;;;18.26;69.84;100854.13;5028705;28;20069;-74
2022/07/30 03:22:28;;;;;;;8.93;6.13;;;;;;;18.23;70.52;100849.97;5017310;28;20083;-74
2022/07/30 03:24:54;;;;;;;10.13;6.10;;;;;;;18.24;70.63;100853.63;5004256;28;20038;-74
2022/07/30 03:27:19;;;;;;;10.13;6.60;;;;;;;18.16;70.37;100852.47;4993569;28;20045;-74
2022/07/30 03:29:45;;;;;;;17.10;9.32;;;;;;;18.20;72.74;100864.72;5013332;28;20108;-74
2022/07/30 03:32:10;;;;;;;13.90;8.93;;;;;;;18.14;72.50;100866.06;5032823;28;20037;-74
2022/07/30 03:34:36;;;;;;;15.32;8.88;;;;;;;18.12;73.01;100859.13;5021280;28;20029;-74
2022/07/30 03:37:04;;;;;;;15.35;8.68;;;;;;;18.13;74.03;100858.78;5006716;28;20061;-74
2022/07/30 03:39:32;;;;;;;15.55;9.38;;;;;;;18.09;75.46;100855.00;5009946;28;20083;-74
2022/07/30 03:41:57;;;;;;;15.98;9.05;;;;;;;18.06;75.20;100856.50;5029111;28;20060;-74
2022/07/30 03:44:23;;;;;;;24.08;12.93;;;;;;;17.95;77.76;100841.19;5014662;28;20034;-74
2022/07/30 03:46:49;;;;;;;18.50;10.98;;;;;;;17.94;78.50;100845.16;5012943;28;20390;-74
2022/07/30 03:49:15;;;;;;;11.73;7.05;;;;;;;17.95;75.44;100845.97;5022838;28;20486;-74
2022/07/30 03:51:41;;;;;;;12.50;7.30;;;;;;;17.99;74.96;100842.13;5010558;28;20049;-74
2022/07/30 03:54:08;;;;;;;9.07;5.68;;;;;;;17.93;74.66;100837.88;5024816;28;20044;-74
2022/07/30 03:56:34;;;;;;;12.30;6.75;;;;;;;17.91;75.07;100834.56;4988068;28;20405;-74
2022/07/30 03:58:59;;;;;;;19.67;10.07;;;;;;;17.82;78.70;100839.41;5009498;28;20034;-74
2022/07/30 04:01:25;;;;;;;16.35;9.20;;;;;;;17.82;78.95;100842.19;5008040;28;20105;-74
2022/07/30 04:03:51;;;;;;;16.85;9.82;;;;;;;17.75;81.37;100839.06;5028973;28;20051;-74
2022/07/30 04:06:16;;;;;;;10.07;6.28;;;;;;;17.82;75.61;100839.41;5008552;28;20069;-74
2022/07/30 04:08:41;;;;;;;17.65;8.85;;;;;;;17.79;77.91;100835.25;5012754;28;20029;-74
2022/07/30 04:11:07;;;;;;;14.13;8.88;;;;;;;17.75;77.76;100841.88;5020625;28;20034;-74
2022/07/30 04:13:32;;;;;;;10.93;6.57;;;;;;;17.71;77.04;100840.88;5008833;28;20083;-74
2022/07/30 04:16:01;;;;;;;12.13;7.53;;;;;;;17.68;76.70;100842.38;5027651;28;20029;-75
2022/07/30 04:18:28;;;;;;;11.23;5.90;;;;;;;17.69;75.77;100843.19;5017202;28;20041;-75
2022/07/30 04:20:54;;;;;;;9.48;5.55;;;;;;;17.69;75.36;100844.03;5021744;28;20049;-75
2022/07/30 04:23:19;;;;;;;13.40;8.10;;;;;;;17.71;76.35;100846.50;5021561;28;20046;-75
2022/07/30 04:25:45;;;;;;;13.25;7.68;;;;;;;17.69;76.01;100854.41;5011285;28;20034;-75
2022/07/30 04:28:10;;;;;;;10.05;6.63;;;;;;;17.72;76.50;100859.38;4992099;28;20570;-74
2022/07/30 04:30:36;;;;;;;17.10;7.13;;;;;;;17.69;76.24;100854.41;5031845;28;20045;-75
2022/07/30 04:33:02;;;;;;;11.65;7.18;;;;;;;17.67;77.34;100853.97;5001562;28;20035;-74
2022/07/30 04:35:31;;;;;;;10.98;5.97;;;;;;;17.67;75.82;100856.75;5009932;28;20502;-74
2022/07/30 04:37:57;;;;;;;11.20;6.38;;;;;;;17.67;75.86;100853.97;5030740;28;20030;-74
2022/07/30 04:40:22;;;;;;;11.05;6.65;;;;;;;17.71;76.66;100857.72;5012198;28;20394;-75
2022/07/30 04:42:48;;;;;;;10.57;6.00;;;;;;;17.67;75.37;100856.75;5025930;28;20475;-75
2022/07/30 04:45:13;;;;;;;10.38;6.60;;;;;;;17.68;75.74;100864.03;4994686;28;20395;-75
2022/07/30 04:47:39;;;;;;;11.23;6.15;;;;;;;17.67;76.54;100859.56;5023447;28;20041;-75
2022/07/30 04:50:05;;;;;;;9.10;5.80;;;;;;;17.68;75.51;100858.41;5029677;28;20088;-75
2022/07/30 04:52:31;;;;;;;10.30;5.75;;;;;;;17.69;75.16;100860.91;5008385;28;20027;-74
2022/07/30 04:55:01;;;;;;;12.32;7.15;;;;;;;17.62;75.47;100860.56;4998104;28;20026;-75
2022/07/30 04:57:27;;;;;;;10.65;6.60;;;;;;;17.64;75.42;100859.06;4975802;28;20029;-74
2022/07/30 04:59:52;;;;;;;11.85;6.70;;;;;;;17.68;75.60;100864.03;4993518;28;20045;-74
2022/07/30 05:02:18;;;;;;;10.90;6.82;;;;;;;17.70;75.56;100868.16;5000272;28;20041;-74
2022/07/30 05:04:44;;;;;;;12.93;7.40;;;;;;;17.70;76.38;100872.94;5013052;28;20026;-74
2022/07/30 05:07:09;;;;;;;9.35;6.60;;;;;;;17.72;75.34;100868.66;4978356;28;20030;-74
2022/07/30 05:09:35;;;;;;;11.77;7.45;;;;;;;17.76;76.51;100874.41;4974485;28;20038;-74
2022/07/30 05:12:00;;;;;;;12.57;8.10;;;;;;;17.79;77.48;100885.84;5029910;28;20056;-74
2022/07/30 05:14:26;;;;;;;15.27;7.82;;;;;;;17.79;76.33;100877.41;4982087;28;20033;-74
2022/07/30 05:16:51;;;;;;;14.50;8.57;;;;;;;17.77;78.71;100878.88;5002626;28;20033;-74
2022/07/30 05:19:17;;;;;;;22.77;15.27;;;;;;;17.75;86.27;100886.81;5019588;28;20421;-74
2022/07/30 05:21:43;;;;;;;13.85;8.25;;;;;;;17.87;80.32;100884.16;5011716;28;20045;-74
2022/07/30 05:24:08;;;;;;;12.70;7.68;;;;;;;17.94;79.38;100880.84;5015391;28;20033;-74
2022/07/30 05:26:34;;;;;;;16.73;11.15;;;;;;;17.99;82.16;100873.06;4977215;28;20080;-74
2022/07/30 05:29:00;;;;;;;14.38;9.15;;;;;;;18.02;81.30;100869.56;5004273;28;20037;-74
2022/07/30 05:31:25;;;;;;;17.70;11.48;;;;;;;18.11;84.23;100874.34;5007805;28;20492;-74
2022/07/30 05:33:51;;;;;;;22.60;11.55;;;;;;;18.18;83.95;100883.06;5028280;28;20063;-75
2022/07/30 05:36:16;;;;;;;12.25;7.57;;;;;;;18.28;80.65;100877.09;4999620;28;20021;-75
2022/07/30 05:38:42;;;;;;;18.80;10.57;;;;;;;18.36;81.18;100884.66;4997716;28;20041;-74
2022/07/30 05:41:07;;;;;;;14.20;8.65;;;;;;;18.48;81.11;100881.13;5020745;28;20029;-75
2022/07/30 05:43:33;;;;;;;15.93;10.07;;;;;;;18.58;80.06;100885.53;4993378;28;20134;-75
2022/07/30 05:45:58;;;;;;;15.52;9.38;;;;;;;18.70;79.81;100882.84;5013517;28;20427;-74
2022/07/30 05:48:25;;;;;;;23.83;14.65;;;;;;;18.78;81.24;100879.19;5033228;28;20033;-74
2022/07/30 05:50:51;;;;;;;22.42;12.68;;;;;;;18.91;81.32;100883.69;4988471;28;20057;-74
2022/07/30 05:53:16;;;;;;;20.73;12.20;;;;;;;19.02;79.87;100881.31;5024113;28;20033;-74
2022/07/30 05:55:41;;;;;;;20.98;13.70;;;;;;;19.11;80.61;100878.44;5026985;28;20030;-74
2022/07/30 05:58:07;;;;;;;20.88;14.55;;;;;;;19.20;80.78;100887.66;5029808;28;20530;-74
2022/07/30 06:00:34;;;;;;;26.02;15.18;;;;;;;19.35;80.90;100891.81;4990822;28;20030;-74
2022/07/30 06:03:00;;;;;;;29.40;18.27;;;;;;;19.42;81.48;100890.13;5019425;28;20036;-74
2022/07/30 06:05:25;;;;;;;25.40;14.70;;;;;;;19.55;79.43;100898.59;5023122;28;20026;-74
2022/07/30 06:07:51;;;;;;;20.75;14.05;;;;;;;19.66;77.78;100902.66;5026182;28;20044;-74
2022/07/30 06:10:16;;;;;;;16.98;10.82;;;;;;;19.77;76.08;100895.44;5000153;28;20033;-74
2022/07/30 06:12:42;;;;;;;25.77;18.50;;;;;;;19.85;78.28;100904.97;5031017;28;20030;-74
2022/07/30 06:15:09;;;;;;;22.88;15.00;;;;;;;19.96;78.03;100899.72;5019422;28;20026;-74
2022/07/30 06:17:42;;;;;;;21.25;14.20;;;;;;;20.09;75.81;100910.69;5003694;28;20030;-74
2022/07/30 06:20:10;;;;;;;21.40;14.30;;;;;;;20.22;76.53;100903.06;5012145;28;20440;-74
2022/07/30 06:22:35;;;;;;;23.40;14.88;;;;;;;20.34;74.79;100907.06;4981068;28;20029;-74
2022/07/30 06:25:01;;;;;;;20.27;14.80;;;;;;;20.47;76.22;100897.44;5002117;28;20391;-74
2022/07/30 06:27:27;;;;;;;19.02;11.82;;;;;;;20.57;74.27;100901.84;5024606;28;20041;-74
2022/07/30 06:29:52;;;;;;;26.90;16.65;;;;;;;20.69;75.42;100905.47;5029872;28;20175;-74
2022/07/30 06:32:18;;;;;;;23.40;16.60;;;;;;;20.72;75.87;100909.59;5019266;28;20053;-74
2022/07/30 06:34:44;;;;;;;23.90;16.65;;;;;;;20.87;76.56;100911.72;5023885;28;20034;-74
2022/07/30 06:37:09;;;;;;;22.77;17.35;;;;;;;20.94;76.26;100908.28;5001431;28;20058;-74
2022/07/30 06:39:35;;;;;;;21.40;14.95;;;;;;;21.05;77.55;100911.44;5022838;28;20060;-74
2022/07/30 06:42:00;;;;;;;20.17;12.38;;;;;;;21.12;74.64;100912.50;5010705;28;20056;-74
2022/07/30 06:44:26;;;;;;;22.95;14.80;;;;;;;21.23;73.77;100907.19;5033350;28;20121;-74
2022/07/30 06:46:51;;;;;;;26.45;19.58;;;;;;;21.27;77.57;100910.09;4982940;28;20080;-74
2022/07/30 06:49:17;;;;;;;23.25;15.80;;;;;;;21.38;75.90;100897.97;5017289;28;20499;-74
2022/07/30 06:51:42;;;;;;;18.40;12.52;;;;;;;21.52;75.07;100908.88;5005874;28;20042;-74
2022/07/30 06:54:08;;;;;;;21.27;13.50;;;;;;;21.57;74.42;100911.44;5022797;28;20041;-74
2022/07/30 06:56:33;;;;;;;22.23;14.80;;;;;;;21.65;74.51;100901.19;5026477;28;20030;-74
2022/07/30 06:58:59;;;;;;;19.73;14.70;;;;;;;21.71;74.62;100896.09;5015233;28;20030;-74
2022/07/30 07:01:24;;;;;;;22.73;15.48;;;;;;;21.73;75.55;100897.38;5023398;28;20084;-74
2022/07/30 07:03:50;;;;;;;18.25;12.23;;;;;;;21.87;73.55;100896.97;5027483;28;20034;-74
2022/07/30 07:06:15;;;;;;;17.05;11.05;;;;;;;22.01;73.58;100907.84;4996197;28;20041;-74
2022/07/30 07:08:41;;;;;;;19.52;14.25;;;;;;;22.02;74.35;100904.63;5035714;28;20026;-74
2022/07/30 07:11:06;;;;;;;19.33;12.90;;;;;;;22.08;74.11;100908.84;5018774;28;20026;-74
2022/07/30 07:13:32;;;;;;;17.80;11.90;;;;;;;22.25;73.62;100904.88;5007154;28;20087;-74
2022/07/30 07:15:57;;;;;;;19.08;12.05;;;;;;;22.32;73.82;100912.72;5014714;28;20035;-74
2022/07/30 07:18:22;;;;;;;19.35;12.45;;;;;;;22.43;73.47;100918.69;5015610;28;20044;-74
2022/07/30 07:20:48;;;;;;;15.45;10.18;;;;;;;22.56;72.71;100922.22;5033867;28;20049;-74
2022/07/30 07:23:13;;;;;;;17.90;10.82;;;;;;;22.64;72.45;100918.38;5007797;28;20034;-74
2022/07/30 07:25:39;;;;;;;14.80;9.35;;;;;;;22.77;71.48;100914.25;5013833;28;20033;-74
2022/07/30 07:28:06;;;;;;;10.52;7.13;;;;;;;22.95;69.94;100912.69;4996026;28;20044;-74
2022/07/30 07:30:32;;;;;;;13.63;8.85;;;;;;;23.10;70.24;100908.19;5043168;28;20537;-74
2022/07/30 07:32:58;;;;;;;9.10;6.60;;;;;;;23.27;69.32;100906.94;5016629;28;20101;-74
2022/07/30 07:35:23;;;;;;;13.63;8.15;;;;;;;23.35;69.25;100905.91;5009250;28;20440;-74
2022/07/30 07:37:49;;;;;;;10.68;6.53;;;;;;;23.46;68.07;100899.63;5028983;28;20037;-74
2022/07/30 07:40:14;;;;;;;8.30;4.65;;;;;;;23.68;67.10;100898.91;5033090;28;20035;-74
2022/07/30 07:42:40;;;;;;;8.95;4.03;;;;;;;23.82;65.12;100904.91;5036772;28;20038;-74
2022/07/30 07:45:06;;;;;;;11.55;4.78;;;;;;;23.95;64.99;100902.69;5042600;28;20730;-74
2022/07/30 07:47:43;;;;;;;9.43;4.95;;;;;;;24.11;64.98;100910.28;5042511;28;20032;-74
2022/07/30 07:50:09;;;;;;;5.47;3.75;;;;;;;24.21;63.74;100921.00;5026848;28;20436;-74
2022/07/30 07:52:34;;;;;;;9.95;4.90;;;;;;;24.34;63.04;100921.66;5037907;28;20028;-74
2022/07/30 07:55:00;;;;;;;6.95;3.55;;;;;;;24.44;62.07;100929.56;5041782;28;20477;-74
2022/07/30 07:57:25;;;;;;;7.50;3.63;;;;;;;24.56;61.60;100934.25;5045079;28;20094;-65
2022/07/30 07:59:53;;;;;;;5.72;3.50;;;;;;;24.63;61.31;100934.38;5048535;28;20045;-65
2022/07/30 08:02:18;;;;;;;8.32;3.22;;;;;;;24.68;59.56;100940.56;5038489;28;20483;-65
2022/07/30 08:04:45;;;;;;;8.50;3.33;;;;;;;24.79;58.34;100935.03;5031172;28;20037;-64
2022/07/30 08:07:11;;;;;;;5.72;3.13;;;;;;;24.91;56.76;100942.53;5003294;28;20026;-65
2022/07/30 08:09:36;;;;;;;6.53;2.80;;;;;;;25.05;55.58;100947.63;5004090;28;20032;-65
2022/07/30 08:12:02;;;;;;;6.53;2.67;;;;;;;25.10;56.33;100938.75;5018052;28;20037;-65
2022/07/30 08:14:27;;;;;;;6.45;3.03;;;;;;;25.13;56.39;100940.81;5018466;28;20032;-65
2022/07/30 08:16:53;;;;;;;5.18;2.92;;;;;;;25.19;56.55;100945.84;5022882;28;20036;-65
2022/07/30 08:19:18;;;;;;;5.28;3.33;;;;;;;25.31;56.60;100941.13;4995663;28;20130;-65
2022/07/30 08:21:44;;;;;;;7.28;3.53;;;;;;;25.45;56.53;100937.66;5026993;28;20042;-64
2022/07/30 08:24:10;;;;;;;5.85;2.70;;;;;;;25.46;56.20;100934.41;5013629;28;20038;-65
2022/07/30 08:26:35;;;;;;;5.53;1.92;;;;;;;25.65;55.81;100930.59;5009568;28;20430;-66
2022/07/30 08:29:01;;;;;;;4.05;1.83;;;;;;;25.83;54.50;100933.72;5022661;28;20034;-65
2022/07/30 08:31:26;;;;;;;6.85;2.60;;;;;;;25.93;54.44;100935.84;4991774;28;20038;-66
2022/07/30 08:33:51;;;;;;;4.95;1.83;;;;;;;26.07;54.00;100935.19;5006239;28;20407;-65
2022/07/30 08:36:17;;;;;;;5.55;2.05;;;;;;;26.17;53.15;100928.00;5019089;28;20021;-66
2022/07/30 08:38:42;;;;;;;6.22;1.90;;;;;;;26.24;53.09;100928.88;5022816;28;20092;-66
2022/07/30 08:41:08;;;;;;;2.88;1.77;;;;;;;26.41;52.11;100938.81;5023833;28;20030;-66
2022/07/30 08:43:34;;;;;;;4.07;2.13;;;;;;;26.41;51.96;100940.81;5010510;28;20034;-65
2022/07/30 08:46:01;;;;;;;4.80;2.50;;;;;;;26.46;51.08;100946.97;5013333;28;20397;-65
2022/07/30 08:48:26;;;;;;;9.65;2.50;;;;;;;26.46;50.98;100944.13;5031299;28;20084;-65
2022/07/30 08:50:51;;;;;;;5.40;2.10;;;;;;;26.57;51.29;100944.25;4983719;28;20045;-66
2022/07/30 08:53:17;;;;;;;6.88;2.60;;;;;;;26.62;51.25;100943.09;4991836;28;20030;-65
2022/07/30 08:55:42;;;;;;;5.15;1.63;;;;;;;26.77;50.45;100941.16;4986002;28;20025;-66
2022/07/30 08:58:31;;;;;;;3.45;1.88;;;;;;;26.94;49.79;100947.03;5009007;28;20537;-65
2022/07/30 09:00:56;;;;;;;7.88;2.60;;;;;;;27.05;49.18;100944.25;5024402;28;20026;-66
2022/07/30 09:03:22;;;;;;;6.90;2.00;;;;;;;27.08;49.22;100952.00;5002420;28;20784;-66
2022/07/30 09:05:47;;;;;;;5.03;1.83;;;;;;;27.21;49.04;100946.00;4993967;28;20081;-65
2022/07/30 09:08:13;;;;;;;5.28;2.42;;;;;;;27.29;48.73;100953.38;4994643;28;20037;-65
2022/07/30 09:10:40;;;;;;;4.90;1.80;;;;;;;27.37;48.32;100955.88;5016813;28;20600;-66
2022/07/30 09:13:23;;;;;;;4.78;2.33;;;;;;;27.37;48.51;100960.75;4990637;28;20430;-65
2022/07/30 09:15:49;;;;;;;4.75;1.92;;;;;;;27.54;48.23;100954.31;4966948;28;20114;-65
2022/07/30 09:18:14;;;;;;;5.57;1.92;;;;;;;27.69;47.97;100962.94;4993879;28;20041;-66
2022/07/30 09:20:40;;;;;;;5.55;1.95;;;;;;;27.78;47.01;100964.22;4993068;28;20113;-66
2022/07/30 09:23:05;;;;;;;5.40;2.15;;;;;;;27.84;46.59;100956.13;5009428;28;20034;-66
2022/07/30 09:25:50;;;;;;;6.75;1.85;;;;;;;27.88;47.02;100954.09;5006569;28;20029;-66
2022/07/30 09:28:15;;;;;;;5.65;2.00;;;;;;;27.96;46.78;100955.75;4988069;28;20502;-65
2022/07/30 09:30:52;;;;;;;4.22;1.48;;;;;;;28.07;46.81;100964.34;5008027;28;20033;-66
2022/07/30 09:33:37;;;;;;;4.30;1.35;;;;;;;28.24;46.38;100952.16;5018936;28;20036;-66
2022/07/30 09:36:04;;;;;;;6.35;1.70;;;;;;;28.34;46.11;100947.69;4974370;28;20088;-66
2022/07/30 09:38:50;;;;;;;8.25;1.45;;;;;;;28.44;45.67;100946.91;5018655;28;20469;-66
2022/07/30 09:41:43;;;;;;;4.18;1.60;;;;;;;28.65;45.21;100943.25;5011666;28;20029;-67
2022/07/30 09:44:08;;;;;;;4.63;1.35;;;;;;;28.76;44.61;100953.88;5020575;28;20444;-66
2022/07/30 09:46:46;;;;;;;6.45;1.42;;;;;;;28.84;44.36;100946.94;5005587;28;20041;-69
2022/07/30 09:49:18;;;;;;;4.40;1.17;;;;;;;28.95;44.07;100956.34;4990105;28;20458;-68
2022/07/30 09:51:43;;;;;;;3.92;1.02;;;;;;;29.12;43.14;100946.94;5007250;28;20479;-69
2022/07/30 09:54:09;;;;;;;4.03;1.17;;;;;;;29.17;42.08;100948.56;4987559;28;20099;-69
2022/07/30 09:56:34;;;;;;;6.05;0.85;;;;;;;29.38;42.38;100944.84;4993652;28;20026;-69
2022/07/30 09:58:59;;;;;;;2.58;1.10;;;;;;;29.52;41.53;100953.38;5002815;28;20509;-69
2022/07/30 10:01:27;;;;;;;3.33;1.13;;;;;;;29.65;41.17;100947.25;4983433;28;20030;-69
2022/07/30 10:03:52;;;;;;;3.97;1.23;;;;;;;29.85;41.11;100951.22;5012866;28;20037;-70
2022/07/30 10:06:18;;;;;;;3.83;1.17;;;;;;;30.02;41.74;100952.38;4998014;28;20025;-69
2022/07/30 10:08:45;;;;;;;3.85;0.93;;;;;;;30.18;40.31;100951.88;5007593;28;20470;-72
2022/07/30 10:11:15;;;;;;;2.15;0.77;;;;;;;30.35;40.95;100950.97;5001042;28;20101;-73
2022/07/30 10:13:41;;;;;;;3.20;0.93;;;;;;;30.47;39.64;100947.59;5004882;28;20080;-69
2022/07/30 10:16:06;;;;;;;4.93;1.10;;;;;;;30.45;39.15;100947.22;4977157;28;20030;-69
2022/07/30 10:18:32;;;;;;;2.67;1.13;;;;;;;30.53;38.34;100939.38;4983452;28;20049;-70
2022/07/30 10:20:59;;;;;;;2.97;1.00;;;;;;;30.49;38.47;100942.25;5000351;28;20045;-70
2022/07/30 10:23:28;;;;;;;3.20;1.13;;;;;;;30.56;38.40;100940.56;5025735;28;20028;-70
2022/07/30 10:25:57;;;;;;;3.20;1.00;;;;;;;30.65;38.37;100940.94;5008369;28;20173;-70
2022/07/30 10:28:23;;;;;;;3.17;0.77;;;;;;;30.73;38.00;100937.56;4975906;28;20511;-70
2022/07/30 10:30:49;;;;;;;2.13;0.85;;;;;;;30.78;37.54;100938.34;4983098;28;20052;-69
2022/07/30 10:33:15;;;;;;;4.40;0.90;;;;;;;30.91;37.54;100930.88;4981245;28;20029;-69
2022/07/30 10:35:40;;;;;;;4.22;1.10;;;;;;;31.06;36.98;100932.38;4999289;28;20031;-69
2022/07/30 10:38:10;;;;;;;4.68;0.85;;;;;;;31.24;37.38;100937.13;4974917;28;20030;-70
2022/07/30 10:40:38;;;;;;;3.30;1.00;;;;;;;31.39;37.05;100933.69;5011327;28;20036;-70
2022/07/30 10:44:03;;;;;;;6.18;1.30;;;;;;;31.60;37.28;100937.56;5002550;28;20103;-69
2022/07/30 10:46:33;;;;;;;3.90;1.27;;;;;;;31.75;35.62;100947.59;4951889;28;20050;-71
2022/07/30 10:49:12;;;;;;;4.57;1.17;;;;;;;31.81;35.68;100931.50;5010853;28;20041;-71
2022/07/30 10:51:47;;;;;;;4.93;1.00;;;;;;;32.03;35.62;100934.94;4992714;28;20037;-76
2022/07/30 10:54:32;;;;;;;3.05;0.90;;;;;;;32.19;35.72;100933.50;5016727;28;20065;-76
2022/07/30 10:57:10;;;;;;;1.60;0.90;;;;;;;32.36;35.52;100934.47;5012938;28;20038;-76
2022/07/30 10:59:54;;;;;;;2.38;0.85;;;;;;;32.53;34.88;100924.78;5021813;28;20037;-76
2022/07/30 11:02:20;;;;;;;4.10;1.10;;;;;;;32.64;34.07;100919.66;5016979;28;20029;-76
2022/07/30 11:04:46;;;;;;;2.75;0.90;;;;;;;32.68;34.04;100908.91;4981714;28;20034;-76
2022/07/30 11:07:21;;;;;;;2.95;1.00;;;;;;;32.79;33.79;100920.25;4983029;28;20516;-76
2022/07/30 11:09:50;;;;;;;2.35;0.70;;;;;;;32.74;33.67;100908.44;5022724;28;20069;-76
2022/07/30 11:12:42;;;;;;;4.30;0.90;;;;;;;32.85;33.51;100914.81;5031337;28;20025;-75
2022/07/30 11:15:08;;;;;;;3.42;0.90;;;;;;;32.90;32.87;100912.22;5016661;28;20108;-75
2022/07/30 11:17:57;;;;;;;3.00;0.88;;;;;;;33.03;32.95;100906.66;4982628;28;20030;-76
2022/07/30 11:20:22;;;;;;;1.52;0.70;;;;;;;33.10;33.81;100915.19;5018164;28;20049;-76
2022/07/30 11:22:48;;;;;;;2.50;0.70;;;;;;;33.22;33.42;100907.94;5027821;28;20087;-76
2022/07/30 11:25:26;;;;;;;3.03;0.80;;;;;;;33.38;33.10;100915.88;5010209;28;20037;-76